Time;durP1;ratioP1;P1;durP2;ratioP2;P2;SDS_P1;SDS_P2;PMS_P1;PMS_P2;Temp;Humidity;BMP_temperature;BMP_pressure;BME280_temperature;BME280_humidity;BME280_pressure;Samples;Min_cycle;Max_cycle;Signal;HPM_P1;HPM_P2
2022/02/05 00:02:29;;;;;;;;;3.75;3.00;;;;;21.84;33.90;101872.44;5069118;28;51150;-44
2022/02/05 00:04:54;;;;;;;;;2.25;2.00;;;;;21.80;34.20;101876.69;5057393;28;50913;-43
2022/02/05 00:07:20;;;;;;;;;4.00;2.00;;;;;21.76;34.15;101875.38;5062931;28;51321;-45
2022/02/05 00:42:06;;;;;;;;;2.75;2.75;;;;;21.35;34.31;101889.16;5068446;28;51649;-47
2022/02/05 00:44:31;;;;;;;;;2.50;2.50;;;;;21.33;34.76;101885.75;5067685;28;51218;-46
2022/02/05 00:46:57;;;;;;;;;1.00;1.00;;;;;21.31;34.86;101885.13;5069550;28;51179;-47
2022/02/05 00:49:22;;;;;;;;;3.25;2.25;;;;;21.29;34.40;101881.72;5090785;27;51312;-44
2022/02/05 00:51:54;;;;;;;;;4.50;3.00;;;;;21.27;34.79;101881.94;5056989;28;51621;-45
2022/02/05 00:54:22;;;;;;;;;4.75;3.75;;;;;21.24;34.83;101881.44;5066438;28;51075;-47
2022/02/05 00:59:18;;;;;;;;;2.00;2.00;;;;;21.20;34.43;101883.75;5065392;28;50972;-42
2022/02/05 01:01:45;;;;;;;;;3.00;1.75;;;;;21.18;34.79;101882.25;5069146;28;51082;-45
2022/02/05 01:04:11;;;;;;;;;4.00;2.25;;;;;21.17;34.91;101878.66;5070845;28;51586;-44
2022/02/05 01:06:37;;;;;;;;;2.00;2.00;;;;;21.15;34.87;101883.50;5068693;28;50908;-45
2022/02/05 01:09:07;;;;;;;;;1.75;1.75;;;;;21.14;34.85;101890.06;5067861;28;51359;-45
2022/02/05 01:11:33;;;;;;;;;2.00;2.00;;;;;21.12;34.64;101889.41;5065566;28;51016;-46
2022/02/05 01:14:01;;;;;;;;;3.00;3.00;;;;;21.10;34.72;101890.69;5065010;28;51059;-44
2022/02/05 01:16:44;;;;;;;;;1.75;1.75;;;;;21.08;34.97;101893.63;5057866;28;51046;-44
2022/02/05 01:19:20;;;;;;;;;2.00;0.00;;;;;21.07;34.97;101908.47;5057783;28;50938;-46
2022/02/05 01:21:51;;;;;;;;;3.75;2.75;;;;;21.03;34.99;101898.88;5065134;28;51091;-43
2022/02/05 01:24:19;;;;;;;;;3.50;3.00;;;;;21.02;34.75;101899.94;5056623;28;51009;-44
2022/02/05 01:26:52;;;;;;;;;4.00;2.00;;;;;21.01;34.84;101893.56;5067430;28;51037;-44
2022/02/05 01:29:32;;;;;;;;;3.50;3.25;;;;;20.99;35.21;101911.38;5069442;28;51075;-50
2022/02/05 01:32:02;;;;;;;;;2.00;2.00;;;;;20.98;35.04;101915.19;5059466;28;51025;-44
2022/02/05 01:34:44;;;;;;;;;1.75;1.75;;;;;20.96;35.17;101922.78;5067790;28;51271;-47
2022/02/05 01:51:33;;;;;;;;;4.00;2.00;;;;;20.86;35.06;101925.88;5057593;28;51040;-43
2022/02/05 01:54:27;;;;;;;;;1.75;1.75;;;;;20.85;35.23;101935.22;5064463;28;51639;-43
2022/02/05 01:56:54;;;;;;;;;2.25;2.25;;;;;20.84;35.20;101938.13;5067117;27;51383;-43
2022/02/05 01:59:33;;;;;;;;;4.00;2.00;;;;;20.80;34.67;101945.94;5068087;27;51110;-44
2022/02/05 02:05:01;;;;;;;;;2.00;2.00;;;;;20.78;34.90;101941.69;5064408;28;51354;-43
2022/02/05 02:10:57;;;;;;;;;1.75;1.00;;;;;20.74;34.95;101947.59;5064750;28;51045;-44
2022/02/05 02:29:55;;;;;;;;;3.75;1.25;;;;;20.66;35.08;101963.41;5068774;28;51152;-43
2022/02/05 02:31:39;;;;;;;;;4.00;2.00;;;;;20.64;35.00;101957.25;5058738;28;51114;-44
2022/02/05 02:34:09;;;;;;;;;3.00;2.00;;;;;20.63;35.25;101955.50;5073662;27;51093;-44
2022/02/05 02:36:56;;;;;;;;;2.00;1.50;;;;;20.62;35.25;101964.81;5061552;28;52023;-44
2022/02/05 02:39:28;;;;;;;;;1.50;1.50;;;;;20.60;35.50;101967.78;5064782;28;51494;-43
2022/02/05 02:42:07;;;;;;;;;1.50;1.00;;;;;20.59;35.18;101970.72;5061782;28;51227;-43
2022/02/05 02:44:33;;;;;;;;;1.00;1.00;;;;;20.57;34.85;101973.69;5074045;27;51078;-44
2022/02/05 02:46:59;;;;;;;;;1.00;1.00;;;;;20.57;35.15;101970.94;5069393;28;51777;-43
2022/02/05 02:57:54;;;;;;;;;1.50;1.50;;;;;20.54;35.03;101974.09;5065710;28;51396;-44
2022/02/05 03:00:20;;;;;;;;;3.25;2.75;;;;;20.53;35.30;101983.41;5070036;28;51058;-43
2022/02/05 03:02:45;;;;;;;;;2.75;1.00;;;;;20.52;35.28;101978.91;5060027;28;51266;-43
2022/02/05 03:05:11;;;;;;;;;1.75;1.25;;;;;20.50;35.51;101978.25;5062679;28;51715;-44
2022/02/05 03:07:36;;;;;;;;;1.75;1.75;;;;;20.50;35.29;101981.00;5068542;28;51827;-43
2022/02/05 03:10:02;;;;;;;;;1.75;1.75;;;;;20.49;35.13;101982.06;5070491;28;51037;-44
2022/02/05 03:12:28;;;;;;;;;1.75;1.75;;;;;20.47;35.08;101981.41;5069995;28;51167;-44
2022/02/05 03:14:54;;;;;;;;;1.75;1.50;;;;;20.46;35.13;101980.56;5062258;27;51072;-44
2022/02/05 03:17:21;;;;;;;;;3.00;2.50;;;;;20.45;35.36;101986.25;5066598;27;51372;-45
2022/02/05 03:19:49;;;;;;;;;1.00;1.00;;;;;20.44;35.45;101985.41;5069925;28;51165;-45
2022/02/05 03:22:18;;;;;;;;;1.00;1.00;;;;;20.43;35.42;101993.88;5060184;28;52404;-44
2022/02/05 03:24:44;;;;;;;;;1.00;1.00;;;;;20.41;35.23;102001.41;5060981;28;51147;-43
2022/02/05 03:27:11;;;;;;;;;0.75;0.75;;;;;20.41;35.09;102004.16;5069047;28;51842;-43
2022/02/05 03:29:37;;;;;;;;;1.75;1.75;;;;;20.41;35.24;102004.16;5066780;28;51070;-43
2022/02/05 03:32:03;;;;;;;;;2.50;1.00;;;;;20.39;35.18;102003.50;5067089;28;51076;-44
2022/02/05 03:34:28;;;;;;;;;2.00;2.00;;;;;20.38;35.50;101999.06;5058854;28;51279;-44
2022/02/05 03:36:55;;;;;;;;;1.00;1.00;;;;;20.37;35.21;101998.19;5059341;28;51924;-43
2022/02/05 03:39:20;;;;;;;;;1.75;1.00;;;;;20.37;35.13;102003.72;5069646;28;50972;-44
2022/02/05 03:41:46;;;;;;;;;1.00;1.00;;;;;20.36;35.08;102006.66;5073244;28;51031;-45
2022/02/05 03:44:11;;;;;;;;;1.25;1.00;;;;;20.34;35.39;102012.34;5066236;28;51398;-43
2022/02/05 03:46:36;;;;;;;;;1.75;1.00;;;;;20.34;35.46;102009.59;5069504;28;51669;-43
2022/02/05 03:49:02;;;;;;;;;1.25;1.25;;;;;20.34;35.42;102017.88;5067194;28;51035;-43
2022/02/05 03:51:27;;;;;;;;;3.00;3.00;;;;;20.32;35.60;102019.06;5066838;28;51096;-45
2022/02/05 03:53:53;;;;;;;;;4.00;1.75;;;;;20.32;35.51;102016.31;5067018;28;51289;-43
2022/02/05 03:56:18;;;;;;;;;4.50;1.25;;;;;20.32;35.67;102008.94;5066684;28;52072;-48
2022/02/05 03:58:44;;;;;;;;;1.00;1.00;;;;;20.31;35.41;102018.22;5091049;27;51261;-43
2022/02/05 04:01:09;;;;;;;;;2.50;1.00;;;;;20.30;35.16;102019.28;5069860;28;51107;-43
2022/02/05 04:03:34;;;;;;;;;1.00;1.00;;;;;20.29;35.26;102028.56;5090628;27;51109;-44
2022/02/05 04:06:00;;;;;;;;;1.25;1.25;;;;;20.29;35.63;102030.47;5066181;28;51174;-43
2022/02/05 04:08:26;;;;;;;;;1.00;1.00;;;;;20.27;35.24;102030.69;5066363;28;50996;-46
2022/02/05 04:11:02;;;;;;;;;2.25;1.75;;;;;20.27;35.54;102027.06;5065845;28;51206;-44
2022/02/05 04:16:22;;;;;;;;;2.00;1.00;;;;;20.24;35.38;102028.31;5063499;28;51059;-45
2022/02/05 04:18:59;;;;;;;;;1.00;1.00;;;;;20.24;35.51;102020.06;5066373;28;51249;-45
2022/02/05 04:21:25;;;;;;;;;1.75;1.75;;;;;20.22;35.17;102024.91;5069601;27;51095;-43
2022/02/05 04:23:52;;;;;;;;;1.00;1.00;;;;;20.22;35.30;102029.53;5069699;28;51117;-50
2022/02/05 04:26:18;;;;;;;;;2.00;1.00;;;;;20.21;35.35;102025.94;5064219;28;51104;-44
2022/02/05 04:28:44;;;;;;;;;1.25;1.25;;;;;20.19;35.32;102025.28;5060919;28;51344;-43
2022/02/05 04:31:10;;;;;;;;;1.25;1.25;;;;;20.19;35.26;102026.13;5070023;28;51478;-43
2022/02/05 04:33:36;;;;;;;;;1.00;1.00;;;;;20.17;35.51;102030.97;5057986;28;51704;-46
2022/02/05 04:36:02;;;;;;;;;2.00;2.00;;;;;20.17;35.32;102028.22;5076603;28;53161;-44
2022/02/05 04:38:29;;;;;;;;;3.75;1.50;;;;;20.16;35.28;102023.75;5066486;28;51700;-43
2022/02/05 04:40:59;;;;;;;;;5.00;1.00;;;;;20.14;35.42;102023.13;5072720;28;51134;-43
2022/02/05 04:46:22;;;;;;;;;1.00;1.00;;;;;20.14;35.23;102028.63;5064266;28;51746;-44
2022/02/05 05:10:06;;;;;;;;;0.75;0.75;;;;;20.06;35.44;102036.97;5062409;28;51145;-45
2022/02/05 05:20:22;;;;;;;;;1.00;1.00;;;;;20.02;35.20;102043.91;5068175;28;51300;-44
2022/02/05 05:22:47;;;;;;;;;1.00;0.75;;;;;20.02;35.38;102049.41;5068086;28;51153;-52
2022/02/05 05:25:13;;;;;;;;;1.00;1.00;;;;;20.02;35.42;102048.56;5065310;28;51334;-44
2022/02/05 05:27:39;;;;;;;;;1.50;0.00;;;;;20.02;35.70;102054.06;5062535;28;51253;-45
2022/02/05 05:30:08;;;;;;;;;2.50;1.00;;;;;20.00;35.33;102050.63;5064738;28;51174;-47
2022/02/05 05:32:33;;;;;;;;;2.00;2.00;;;;;19.99;35.31;102055.25;5074714;28;50956;-43
2022/02/05 05:34:59;;;;;;;;;2.25;1.00;;;;;19.99;35.61;102058.00;5060090;28;51681;-51
2022/02/05 05:37:24;;;;;;;;;0.50;0.50;;;;;19.98;35.32;102050.81;5068212;28;51089;-48
2022/02/05 05:39:50;;;;;;;;;0.00;0.00;;;;;19.97;35.36;102051.00;5068070;28;51068;-45
2022/02/05 05:42:24;;;;;;;;;0.00;0.00;;;;;19.97;35.34;102045.50;5066779;28;51158;-43
2022/02/05 05:47:20;;;;;;;;;1.00;1.00;;;;;19.95;35.46;102056.69;5065498;28;51110;-45
2022/02/05 05:52:17;;;;;;;;;3.25;2.75;;;;;19.94;35.52;102048.63;5068150;28;51083;-44
2022/02/05 05:54:43;;;;;;;;;1.50;1.50;;;;;19.95;35.36;102062.19;5067113;28;51120;-43
2022/02/05 05:57:09;;;;;;;;;1.25;1.25;;;;;19.93;35.59;102049.69;5071406;28;52465;-45
2022/02/05 05:59:34;;;;;;;;;0.00;0.00;;;;;19.92;35.71;102048.84;5069459;28;51487;-44
2022/02/05 06:02:01;;;;;;;;;1.25;1.00;;;;;19.93;35.78;102055.19;5069250;28;51029;-45
2022/02/05 06:04:26;;;;;;;;;0.75;0.75;;;;;19.91;35.55;102058.13;5076459;27;52592;-43
2022/02/05 06:06:51;;;;;;;;;0.25;0.25;;;;;19.90;35.37;102061.91;5068256;28;50970;-45
2022/02/05 06:09:17;;;;;;;;;0.75;0.75;;;;;19.89;35.63;102068.44;5068165;28;51067;-43
2022/02/05 06:11:42;;;;;;;;;1.00;1.00;;;;;19.88;35.45;102075.84;5062497;28;51286;-44
2022/02/05 06:14:08;;;;;;;;;2.00;0.75;;;;;19.89;35.41;102065.69;5061901;28;51139;-45
2022/02/05 06:16:34;;;;;;;;;1.00;1.00;;;;;19.87;35.41;102076.03;5067818;28;51278;-44
2022/02/05 06:18:59;;;;;;;;;2.25;0.00;;;;;19.88;35.45;102077.72;5069056;28;51281;-44
2022/02/05 06:21:25;;;;;;;;;2.00;1.25;;;;;19.87;35.77;102081.53;5059290;28;51273;-44
2022/02/05 06:23:51;;;;;;;;;2.00;0.75;;;;;19.86;35.74;102069.69;5065435;28;51072;-43
2022/02/05 06:26:17;;;;;;;;;0.75;0.75;;;;;19.86;35.37;102074.31;5063147;28;51993;-43
2022/02/05 06:28:42;;;;;;;;;1.00;0.00;;;;;19.84;35.48;102082.78;5058587;28;50854;-43
2022/02/05 06:31:07;;;;;;;;;0.00;0.00;;;;;19.86;35.71;102085.31;5060632;28;51025;-44
2022/02/05 06:33:33;;;;;;;;;0.75;0.75;;;;;19.84;35.69;102093.78;5068081;28;51084;-46
2022/02/05 06:35:58;;;;;;;;;3.00;1.00;;;;;19.84;35.09;102093.78;5069401;27;51775;-44
2022/02/05 06:38:24;;;;;;;;;4.25;4.00;;;;;19.84;34.67;102102.03;5073403;28;51101;-44
2022/02/05 06:40:52;;;;;;;;;1.75;1.75;;;;;19.82;34.37;102097.75;5067352;28;51087;-45
2022/02/05 06:43:18;;;;;;;;;2.50;2.50;;;;;19.80;33.99;102102.56;5065931;28;51017;-47
2022/02/05 06:45:43;;;;;;;;;2.75;1.75;;;;;19.76;33.73;102099.34;5059592;28;51606;-46
2022/02/05 06:48:10;;;;;;;;;2.75;2.75;;;;;19.73;33.56;102098.88;5065272;28;52187;-45
2022/02/05 06:50:35;;;;;;;;;2.25;2.00;;;;;19.70;33.22;102110.25;5063569;28;51198;-45
2022/02/05 06:53:01;;;;;;;;;2.00;2.00;;;;;19.65;33.34;102109.94;5066985;28;50919;-45
2022/02/05 06:55:28;;;;;;;;;2.00;2.00;;;;;19.60;33.05;102125.13;5069234;28;51102;-44
2022/02/05 06:57:53;;;;;;;;;3.75;2.50;;;;;19.57;33.41;102130.09;5055977;28;51084;-43
2022/02/05 07:00:19;;;;;;;;;1.25;1.25;;;;;19.53;32.90;102137.84;5065779;28;51379;-45
2022/02/05 07:02:44;;;;;;;;;3.00;1.50;;;;;19.48;33.15;102137.53;5059719;28;51068;-44
2022/02/05 07:05:10;;;;;;;;;1.50;1.25;;;;;19.44;32.75;102138.94;5058154;28;52616;-45
2022/02/05 07:07:36;;;;;;;;;3.50;3.25;;;;;19.44;32.69;102138.09;5055959;28;51130;-46
2022/02/05 07:10:02;;;;;;;;;2.00;1.75;;;;;19.47;32.83;102134.97;5057518;28;51243;-46
2022/02/05 07:12:28;;;;;;;;;6.00;1.50;;;;;19.53;32.88;102140.59;5068178;28;51179;-46
2022/02/05 07:17:28;;;;;;;;;1.00;1.00;;;;;19.68;33.24;102139.81;5068253;28;51163;-44
2022/02/05 07:20:10;;;;;;;;;2.50;1.00;;;;;19.76;33.41;102148.84;5055168;28;51117;-46
2022/02/05 07:22:48;;;;;;;;;2.00;1.50;;;;;19.87;33.59;102147.53;5059265;28;50996;-45
2022/02/05 07:31:11;;;;;;;;;1.00;1.00;;;;;20.15;33.71;102153.25;5015979;28;51224;-48
2022/02/05 07:33:37;;;;;;;;;1.25;1.25;;;;;20.23;33.46;102158.69;5062847;27;51086;-45
2022/02/05 07:36:03;;;;;;;;;0.00;0.00;;;;;20.30;33.69;102153.25;5053103;28;53021;-48
2022/02/05 07:38:28;;;;;;;;;2.00;2.00;;;;;20.36;33.79;102156.13;5055176;28;51401;-46
2022/02/05 07:40:53;;;;;;;;;4.25;2.00;;;;;20.42;33.86;102147.13;5061346;28;50960;-46
2022/02/05 07:43:26;;;;;;;;;3.25;2.75;;;;;20.46;33.46;102148.47;5062066;28;50929;-50
2022/02/05 07:45:52;;;;;;;;;1.50;1.50;;;;;20.50;33.67;102162.69;5055531;28;52017;-43
2022/02/05 07:48:17;;;;;;;;;2.25;2.25;;;;;20.51;33.70;102172.66;5055828;28;51048;-44
2022/02/05 07:50:43;;;;;;;;;3.25;3.00;;;;;20.51;33.84;102169.03;5066280;28;51119;-45
2022/02/05 07:53:08;;;;;;;;;5.50;3.00;;;;;20.50;33.86;102170.94;5069039;28;51075;-46
2022/02/05 07:55:33;;;;;;;;;2.50;2.50;;;;;20.50;33.83;102164.59;5067188;28;51054;-46
2022/02/05 07:57:59;;;;;;;;;4.25;4.25;;;;;20.47;34.00;102168.56;5068692;28;51111;-45
2022/02/05 08:00:24;;;;;;;;;5.75;3.00;;;;;20.46;33.92;102170.47;5060111;28;51269;-44
2022/02/05 08:02:51;;;;;;;;;2.25;2.25;;;;;20.45;33.96;102168.78;5065905;28;51134;-44
2022/02/05 08:05:17;;;;;;;;;2.75;2.75;;;;;20.45;34.05;102173.44;5066288;28;51883;-44
2022/02/05 08:07:43;;;;;;;;;3.25;3.25;;;;;20.43;33.91;102173.63;5067566;28;51027;-44
2022/02/05 08:10:09;;;;;;;;;3.25;3.00;;;;;20.43;34.14;102175.53;5065659;28;51100;-44
2022/02/05 08:12:37;;;;;;;;;3.50;2.00;;;;;20.41;34.31;102172.03;5066397;28;51287;-46
2022/02/05 08:15:03;;;;;;;;;4.50;2.50;;;;;20.41;34.40;102170.16;5057833;28;51899;-45
2022/02/05 08:17:31;;;;;;;;;4.50;3.00;;;;;20.41;34.26;102169.28;5056956;28;51195;-46
2022/02/05 08:19:56;;;;;;;;;2.50;2.50;;;;;20.38;34.00;102156.78;5064770;28;50893;-45
2022/02/05 08:22:22;;;;;;;;;3.00;3.00;;;;;20.39;34.12;102160.38;5067632;28;50870;-44
2022/02/05 08:24:48;;;;;;;;;5.75;1.25;;;;;20.38;34.13;102156.78;5064553;28;51259;-45
2022/02/05 08:27:14;;;;;;;;;2.00;1.75;;;;;20.37;33.97;102152.31;5074881;28;51955;-44
2022/02/05 08:29:48;;;;;;;;;1.25;1.00;;;;;20.37;34.18;102149.56;5069606;28;51219;-44
2022/02/05 08:32:13;;;;;;;;;2.75;2.00;;;;;20.37;34.27;102144.06;5060853;27;51169;-44
2022/02/05 08:34:39;;;;;;;;;2.00;2.00;;;;;20.36;34.42;102144.25;5076547;27;50859;-47
2022/02/05 08:37:04;;;;;;;;;2.25;1.00;;;;;20.36;35.33;102152.50;5069132;28;50889;-46
2022/02/05 08:39:30;;;;;;;;;3.50;3.25;;;;;20.36;34.50;102164.38;5061886;28;51101;-43
2022/02/05 08:41:55;;;;;;;;;2.25;2.25;;;;;20.36;34.65;102161.63;5068978;28;50850;-44
2022/02/05 08:44:21;;;;;;;;;4.75;2.50;;;;;20.36;34.27;102163.53;5066904;27;51178;-46
2022/02/05 08:46:46;;;;;;;;;1.50;1.50;;;;;20.35;34.73;102161.81;5064136;28;51233;-44
2022/02/05 08:49:13;;;;;;;;;2.25;2.25;;;;;20.35;34.74;102159.06;5061169;28;51142;-45
2022/02/05 08:51:38;;;;;;;;;2.50;1.00;;;;;20.34;34.80;102168.38;5065423;28;51076;-44
2022/02/05 08:54:04;;;;;;;;;2.00;1.00;;;;;20.34;34.83;102171.13;5059895;28;51153;-43
2022/02/05 08:56:29;;;;;;;;;3.00;2.00;;;;;20.33;34.74;102172.16;5066612;28;51252;-45
2022/02/05 08:58:55;;;;;;;;;3.00;3.00;;;;;20.35;34.64;102178.31;5062255;28;51002;-46
2022/02/05 09:01:28;;;;;;;;;4.00;1.00;;;;;20.35;35.03;102183.84;5073134;28;51286;-44
2022/02/05 09:04:06;;;;;;;;;1.50;1.00;;;;;20.37;35.23;102187.25;5066873;28;52419;-45
2022/02/05 09:06:38;;;;;;;;;2.00;2.00;;;;;20.38;35.43;102188.94;5065218;28;51045;-45
2022/02/05 09:11:42;;;;;;;;;2.00;2.00;;;;;20.37;35.07;102179.84;5061567;28;50908;-45
2022/02/05 09:16:52;;;;;;;;;3.25;2.00;;;;;20.48;34.45;102184.03;5060026;28;51499;-44
2022/02/05 09:19:18;;;;;;;;;1.50;1.50;;;;;20.54;34.73;102191.56;5065091;28;50996;-46
2022/02/05 09:21:43;;;;;;;;;2.50;2.00;;;;;20.63;34.57;102189.53;5054506;28;51133;-47
2022/02/05 09:24:09;;;;;;;;;3.25;2.50;;;;;20.70;34.19;102176.72;5064321;28;51758;-45
2022/02/05 09:26:43;;;;;;;;;3.00;2.50;;;;;20.80;34.12;102182.78;5075697;28;51038;-43
2022/02/05 09:29:15;;;;;;;;;4.00;2.50;;;;;20.89;34.35;102181.63;5067743;28;50904;-45
2022/02/05 09:31:40;;;;;;;;;2.25;2.25;;;;;21.00;34.12;102188.53;5071821;27;51195;-45
2022/02/05 09:34:06;;;;;;;;;2.00;2.00;;;;;21.07;34.02;102186.72;5056777;28;51843;-45
2022/02/05 09:36:34;;;;;;;;;2.25;2.00;;;;;21.16;33.90;102171.78;5058493;28;50991;-52
2022/02/05 09:38:59;;;;;;;;;2.75;1.50;;;;;21.25;34.16;102178.84;5058066;28;51092;-44
2022/02/05 09:41:26;;;;;;;;;1.50;1.50;;;;;21.33;33.84;102173.25;5064906;28;51287;-49
2022/02/05 09:43:52;;;;;;;;;2.50;2.00;;;;;21.42;33.74;102182.25;5072295;28;51059;-44
2022/02/05 09:46:19;;;;;;;;;3.00;2.25;;;;;21.50;33.10;102184.03;5064578;28;51505;-46
2022/02/05 09:48:48;;;;;;;;;3.25;1.25;;;;;21.54;33.26;102179.81;5064992;28;51168;-42
2022/02/05 09:51:19;;;;;;;;;3.00;1.00;;;;;21.56;33.59;102177.72;5064286;28;51348;-47
2022/02/05 09:53:49;;;;;;;;;5.75;2.00;;;;;21.56;33.52;102177.72;5063828;28;50921;-44
2022/02/05 09:56:17;;;;;;;;;3.00;2.00;;;;;21.57;33.78;102180.31;5065100;28;51596;-44
2022/02/05 09:58:42;;;;;;;;;2.25;2.00;;;;;21.57;33.30;102187.69;5064365;28;51132;-44
2022/02/05 10:01:28;;;;;;;;;1.25;1.00;;;;;21.58;33.87;102184.75;5072555;28;51029;-44
2022/02/05 10:03:55;;;;;;;;;5.00;3.00;;;;;21.58;33.94;102187.53;5058548;28;51869;-43
2022/02/05 10:06:26;;;;;;;;;2.75;2.75;;;;;21.57;33.86;102190.44;5066356;28;51274;-44
2022/02/05 10:09:11;;;;;;;;;3.25;3.25;;;;;21.55;33.36;102196.16;5070094;28;50988;-45
2022/02/05 10:11:50;;;;;;;;;4.25;3.50;;;;;21.52;33.60;102199.31;5067565;28;51106;-46
2022/02/05 10:14:18;;;;;;;;;5.50;4.00;;;;;21.48;33.75;102195.28;5066571;28;52593;-43
2022/02/05 10:16:50;;;;;;;;;4.50;3.00;;;;;21.44;33.81;102193.09;5068389;28;51049;-44
2022/02/05 10:19:16;;;;;;;;;3.25;3.00;;;;;21.43;33.49;102203.25;5064426;28;51102;-44
2022/02/05 10:21:41;;;;;;;;;3.50;2.00;;;;;21.40;33.94;102203.66;5057641;28;50867;-45
2022/02/05 10:24:09;;;;;;;;;2.75;2.50;;;;;21.40;33.87;102194.53;5071835;28;51026;-43
2022/02/05 10:26:40;;;;;;;;;3.25;3.25;;;;;21.38;33.57;102191.97;5050875;28;50888;-44
2022/02/05 10:29:20;;;;;;;;;5.00;2.75;;;;;21.37;33.78;102206.81;5064991;28;51200;-43
2022/02/05 10:32:03;;;;;;;;;2.75;2.75;;;;;21.36;33.52;102206.97;5063758;28;51134;-44
2022/02/05 10:34:32;;;;;;;;;3.00;2.50;;;;;21.36;33.82;102212.50;5060141;28;52010;-45
2022/02/05 10:37:19;;;;;;;;;4.25;3.00;;;;;21.36;34.16;102206.97;5057453;28;51777;-43
2022/02/05 10:40:07;;;;;;;;;4.25;3.75;;;;;21.37;33.49;102211.47;5056671;28;50947;-45
2022/02/05 10:45:18;;;;;;;;;5.25;3.75;;;;;21.38;33.80;102215.94;5052603;28;51094;-44
2022/02/05 10:47:50;;;;;;;;;3.00;2.75;;;;;21.38;33.41;102216.78;5059408;28;51268;-45
2022/02/05 10:50:18;;;;;;;;;4.50;3.75;;;;;21.37;33.35;102223.34;5068031;28;51080;-44
2022/02/05 10:53:04;;;;;;;;;5.25;1.50;;;;;21.38;33.87;102225.06;5070316;28;51089;-46
2022/02/05 11:07:11;;;;;;;;;5.25;4.25;;;;;21.39;33.36;102231.44;5071419;28;51166;-44
2022/02/05 11:09:43;;;;;;;;;5.00;4.25;;;;;21.39;33.34;102225.91;5069865;28;51115;-45
2022/02/05 11:19:59;;;;;;;;;5.75;4.00;;;;;21.41;33.52;102232.06;5076023;27;51561;-44
2022/02/05 11:22:30;;;;;;;;;4.25;2.25;;;;;21.42;33.20;102228.28;5076530;28;51064;-46
2022/02/05 11:24:55;;;;;;;;;5.00;3.00;;;;;21.41;33.55;102230.19;5070328;27;50964;-45
2022/02/05 11:27:21;;;;;;;;;4.25;3.50;;;;;21.41;33.08;102221.91;5076034;28;51771;-45
2022/02/05 11:29:46;;;;;;;;;3.00;3.00;;;;;21.42;33.55;102220.00;5065587;28;50882;-47
2022/02/05 11:32:20;;;;;;;;;7.00;3.00;;;;;21.41;33.18;102215.53;5066365;28;51119;-46
2022/02/05 11:35:00;;;;;;;;;4.00;2.50;;;;;21.40;33.44;102219.34;5067630;27;50976;-46
2022/02/05 11:37:25;;;;;;;;;3.00;3.00;;;;;21.39;33.35;102215.75;5066237;28;51810;-45
2022/02/05 11:39:53;;;;;;;;;4.00;4.00;;;;;21.37;33.49;102206.81;5073283;28;50964;-47
2022/02/05 11:42:34;;;;;;;;;4.00;2.25;;;;;21.36;33.50;102204.22;5060828;28;51185;-45
2022/02/05 11:45:20;;;;;;;;;4.00;4.00;;;;;21.35;33.53;102203.38;5064419;28;51392;-46
2022/02/05 11:47:46;;;;;;;;;2.00;2.00;;;;;21.35;33.07;102202.53;5076378;28;52025;-53
2022/02/05 11:50:19;;;;;;;;;2.50;2.50;;;;;21.31;33.31;102202.06;5068073;28;51052;-45
2022/02/05 11:52:44;;;;;;;;;3.00;3.00;;;;;21.30;33.61;102206.72;5065285;27;50925;-46
2022/02/05 11:55:32;;;;;;;;;4.00;2.25;;;;;21.27;33.18;102209.03;5057826;28;50981;-47
2022/02/05 11:57:58;;;;;;;;;3.25;2.75;;;;;21.24;33.46;102217.63;5059465;28;52806;-47
2022/02/05 12:00:53;;;;;;;;;2.75;2.75;;;;;21.23;33.31;102204.91;5061658;28;50850;-45
2022/02/05 12:03:28;;;;;;;;;4.50;4.50;;;;;21.20;33.48;102205.31;5058163;28;50913;-45
2022/02/05 12:06:01;;;;;;;;;4.00;4.00;;;;;21.16;33.23;102198.50;5069098;27;51081;-50
2022/02/05 12:08:37;;;;;;;;;6.75;4.25;;;;;21.15;33.56;102192.09;5058349;28;52757;-50
2022/02/05 12:11:23;;;;;;;;;4.25;4.25;;;;;21.12;33.52;102184.22;5066303;28;50999;-47
2022/02/05 12:14:10;;;;;;;;;5.25;3.00;;;;;21.12;33.29;102180.63;5073581;27;51224;-48
2022/02/05 12:16:37;;;;;;;;;7.00;3.75;;;;;21.11;33.80;102170.66;5065476;28;50987;-48
2022/02/05 12:19:19;;;;;;;;;4.00;4.00;;;;;21.09;33.40;102179.13;5058837;28;51991;-48
2022/02/05 12:21:56;;;;;;;;;4.25;3.75;;;;;21.08;33.76;102171.91;5069240;27;51526;-49
2022/02/05 12:24:36;;;;;;;;;5.00;5.00;;;;;21.08;34.14;102165.53;5059478;28;51154;-46
2022/02/05 12:27:22;;;;;;;;;4.00;2.50;;;;;21.09;33.83;102161.72;5075192;28;50869;-48
2022/02/05 12:29:47;;;;;;;;;3.00;3.00;;;;;21.10;33.83;102168.94;5067829;28;51949;-51
2022/02/05 12:32:13;;;;;;;;;4.75;2.00;;;;;21.10;33.89;102157.94;5068893;28;51154;-51
2022/02/05 12:34:38;;;;;;;;;4.25;2.25;;;;;21.14;34.03;102170.25;5057991;28;50970;-47
2022/02/05 12:37:04;;;;;;;;;4.25;3.00;;;;;21.18;33.98;102171.59;5066077;28;50796;-49
2022/02/05 12:39:33;;;;;;;;;2.75;1.75;;;;;21.24;33.95;102155.09;5059221;28;51533;-48
2022/02/05 12:41:58;;;;;;;;;2.75;2.75;;;;;21.32;33.86;102152.25;5062734;28;51936;-47
2022/02/05 12:44:28;;;;;;;;;3.00;1.50;;;;;21.41;34.14;102147.47;5067476;27;51298;-47
2022/02/05 12:47:03;;;;;;;;;1.50;1.50;;;;;21.51;34.12;102147.16;5064797;28;50822;-49
2022/02/05 12:49:36;;;;;;;;;2.25;2.25;;;;;21.59;33.73;102147.00;5061084;28;51967;-49
2022/02/05 12:52:02;;;;;;;;;3.00;3.00;;;;;21.67;33.73;102148.75;5065087;28;50995;-46
2022/02/05 12:54:30;;;;;;;;;4.00;3.00;;;;;21.73;33.80;102151.59;5063921;28;50969;-47
2022/02/05 12:56:58;;;;;;;;;2.50;2.25;;;;;21.81;33.37;102164.38;5064390;28;51265;-46
2022/02/05 12:59:35;;;;;;;;;3.25;3.25;;;;;21.87;33.37;102156.13;5057904;28;51724;-48
2022/02/05 13:02:06;;;;;;;;;3.00;2.00;;;;;21.92;33.86;102158.31;5062029;28;51149;-49
2022/02/05 13:04:34;;;;;;;;;2.00;1.00;;;;;21.99;33.21;102161.09;5073307;28;51116;-50
2022/02/05 13:07:12;;;;;;;;;1.25;1.25;;;;;22.02;33.41;102160.72;5067975;28;51333;-46
2022/02/05 13:09:47;;;;;;;;;1.25;1.00;;;;;22.03;33.50;102154.16;5066259;28;51003;-46
2022/02/05 13:12:14;;;;;;;;;2.00;1.75;;;;;22.02;33.25;102155.22;5057826;28;51130;-46
2022/02/05 13:14:54;;;;;;;;;2.00;2.00;;;;;22.00;33.51;102149.03;5072398;28;51007;-47
2022/02/05 13:17:22;;;;;;;;;3.00;2.25;;;;;21.97;32.85;102147.50;5065393;28;51082;-46
2022/02/05 13:34:16;;;;;;;;;3.00;2.75;;;;;21.97;33.07;102136.47;5056386;28;51628;-44
2022/02/05 13:36:54;;;;;;;;;5.25;1.75;;;;;22.05;33.25;102138.25;5059308;28;51135;-44
2022/02/05 13:39:42;;;;;;;;;5.00;3.00;;;;;22.10;32.80;102135.78;5063446;28;51327;-47
2022/02/05 13:42:17;;;;;;;;;3.50;3.50;;;;;22.14;32.52;102128.78;5054566;28;51818;-44
2022/02/05 13:47:18;;;;;;;;;3.00;2.25;;;;;22.12;32.82;102123.47;5059818;28;51032;-44
2022/02/05 13:50:09;;;;;;;;;3.00;3.00;;;;;22.13;32.38;102124.31;5060493;28;52055;-44
2022/02/05 13:52:36;;;;;;;;;5.50;3.25;;;;;22.11;32.78;102126.44;5062022;28;51093;-46
2022/02/05 13:55:25;;;;;;;;;2.75;2.75;;;;;22.10;32.31;102117.31;5061058;27;51218;-49
2022/02/05 13:58:04;;;;;;;;;3.25;3.00;;;;;22.10;32.29;102120.06;5061642;28;51257;-49
2022/02/05 14:00:44;;;;;;;;;3.50;2.00;;;;;22.08;32.69;102121.31;5055581;28;51225;-44
2022/02/05 14:03:11;;;;;;;;;5.00;3.00;;;;;22.09;32.26;102125.75;5054683;28;51748;-44
2022/02/05 14:06:01;;;;;;;;;3.00;3.00;;;;;22.14;32.70;102126.03;5060205;27;51116;-47
2022/02/05 14:08:29;;;;;;;;;1.00;1.00;;;;;22.22;32.64;102123.09;5052783;28;51112;-48
2022/02/05 14:10:56;;;;;;;;;2.75;1.75;;;;;22.31;32.53;102121.03;5065581;28;51195;-48
2022/02/05 14:13:22;;;;;;;;;2.25;2.00;;;;;22.36;32.35;102115.75;5053169;28;51051;-48
2022/02/05 14:15:52;;;;;;;;;2.00;2.00;;;;;22.38;32.47;102110.88;5063354;28;51144;-51
2022/02/05 14:18:18;;;;;;;;;3.00;3.00;;;;;22.38;32.35;102114.47;5065837;28;51121;-46
2022/02/05 14:20:59;;;;;;;;;3.75;2.25;;;;;22.38;32.35;102120.00;5064633;28;50960;-45
2022/02/05 14:23:30;;;;;;;;;2.75;2.00;;;;;22.37;31.91;102114.69;5071641;28;51175;-48
2022/02/05 14:26:08;;;;;;;;;2.50;2.50;;;;;22.36;31.84;102111.06;5067080;28;51474;-46
2022/02/05 14:28:46;;;;;;;;;4.00;2.00;;;;;22.34;32.41;102115.94;5066937;27;51103;-47